sensor_id;sensor_type;location;lat;lon;timestamp;temperature;humidity
47168;DHT22;32931;47.778;17.806;2023-02-23T00:00:12;8.60;99.90
47168;DHT22;32931;47.778;17.806;2023-02-23T00:02:56;8.60;99.90
47168;DHT22;32931;47.778;17.806;2023-02-23T00:05:31;8.60;99.90
47168;DHT22;32931;47.778;17.806;2023-02-23T00:08:00;8.60;99.90
47168;DHT22;32931;47.778;17.806;2023-02-23T00:10:27;8.60;99.90
47168;DHT22;32931;47.778;17.806;2023-02-23T00:12:57;8.50;99.90
47168;DHT22;32931;47.778;17.806;2023-02-23T00:15:25;8.50;99.90
47168;DHT22;32931;47.778;17.806;2023-02-23T00:17:55;8.50;99.90
47168;DHT22;32931;47.778;17.806;2023-02-23T00:20:24;8.50;99.90
47168;DHT22;32931;47.778;17.806;2023-02-23T00:22:54;8.50;99.90
47168;DHT22;32931;47.778;17.806;2023-02-23T00:25:21;8.50;99.90
47168;DHT22;32931;47.778;17.806;2023-02-23T00:27:47;8.50;99.90
47168;DHT22;32931;47.778;17.806;2023-02-23T00:30:16;8.50;99.90
47168;DHT22;32931;47.778;17.806;2023-02-23T00:32:45;8.50;99.90
47168;DHT22;32931;47.778;17.806;2023-02-23T00:35:12;8.50;99.90
47168;DHT22;32931;47.778;17.806;2023-02-23T00:37:46;8.50;99.90
47168;DHT22;32931;47.778;17.806;2023-02-23T00:40:14;8.50;99.90
47168;DHT22;32931;47.778;17.806;2023-02-23T00:42:43;8.50;99.90
47168;DHT22;32931;47.778;17.806;2023-02-23T00:45:11;8.50;99.90
47168;DHT22;32931;47.778;17.806;2023-02-23T00:47:42;8.50;99.90
47168;DHT22;32931;47.778;17.806;2023-02-23T00:50:11;8.50;99.90
47168;DHT22;32931;47.778;17.806;2023-02-23T00:52:39;8.50;99.90
47168;DHT22;32931;47.778;17.806;2023-02-23T00:55:13;8.50;99.90
47168;DHT22;32931;47.778;17.806;2023-02-23T00:57:40;8.50;99.90
47168;DHT22;32931;47.778;17.806;2023-02-23T01:00:09;8.50;99.90
47168;DHT22;32931;47.778;17.806;2023-02-23T01:02:48;8.50;99.90
47168;DHT22;32931;47.778;17.806;2023-02-23T01:05:15;8.50;99.90
47168;DHT22;32931;47.778;17.806;2023-02-23T01:07:42;8.50;99.90
47168;DHT22;32931;47.778;17.806;2023-02-23T01:10:11;8.50;99.90
47168;DHT22;32931;47.778;17.806;2023-02-23T01:12:48;8.50;99.90
47168;DHT22;32931;47.778;17.806;2023-02-23T01:15:15;8.60;99.90
47168;DHT22;32931;47.778;17.806;2023-02-23T01:17:42;8.60;99.90
47168;DHT22;32931;47.778;17.806;2023-02-23T01:20:10;8.60;99.90
47168;DHT22;32931;47.778;17.806;2023-02-23T01:22:45;8.60;99.90
47168;DHT22;32931;47.778;17.806;2023-02-23T01:25:13;8.60;99.90
47168;DHT22;32931;47.778;17.806;2023-02-23T01:27:43;8.70;99.90
47168;DHT22;32931;47.778;17.806;2023-02-23T01:30:13;8.70;99.90
47168;DHT22;32931;47.778;17.806;2023-02-23T01:32:40;8.80;99.90
47168;DHT22;32931;47.778;17.806;2023-02-23T01:35:08;8.80;99.90
47168;DHT22;32931;47.778;17.806;2023-02-23T01:37:40;8.80;99.90
47168;DHT22;32931;47.778;17.806;2023-02-23T01:40:19;8.80;99.90
47168;DHT22;32931;47.778;17.806;2023-02-23T01:42:56;8.90;99.90
47168;DHT22;32931;47.778;17.806;2023-02-23T01:47:59;9.00;99.90
47168;DHT22;32931;47.778;17.806;2023-02-23T01:50:29;9.00;99.90
47168;DHT22;32931;47.778;17.806;2023-02-23T01:52:57;9.10;99.90
47168;DHT22;32931;47.778;17.806;2023-02-23T01:55:25;9.10;99.90
47168;DHT22;32931;47.778;17.806;2023-02-23T01:57:58;9.10;99.90
47168;DHT22;32931;47.778;17.806;2023-02-23T02:00:26;9.20;99.90
47168;DHT22;32931;47.778;17.806;2023-02-23T02:02:53;9.20;99.90
47168;DHT22;32931;47.778;17.806;2023-02-23T02:05:20;9.20;99.90
47168;DHT22;32931;47.778;17.806;2023-02-23T02:07:48;9.30;99.90
47168;DHT22;32931;47.778;17.806;2023-02-23T02:10:25;9.30;99.90
47168;DHT22;32931;47.778;17.806;2023-02-23T02:13:25;9.30;99.90
47168;DHT22;32931;47.778;17.806;2023-02-23T02:16:06;9.30;99.90
47168;DHT22;32931;47.778;17.806;2023-02-23T02:24:59;9.40;99.90
47168;DHT22;32931;47.778;17.806;2023-02-23T02:30:40;9.40;99.90
47168;DHT22;32931;47.778;17.806;2023-02-23T02:36:00;9.40;99.90
47168;DHT22;32931;47.778;17.806;2023-02-23T02:41:28;9.40;99.90
47168;DHT22;32931;47.778;17.806;2023-02-23T02:44:26;9.40;99.90
47168;DHT22;32931;47.778;17.806;2023-02-23T02:47:02;9.40;99.90
47168;DHT22;32931;47.778;17.806;2023-02-23T02:50:13;9.50;99.90
47168;DHT22;32931;47.778;17.806;2023-02-23T02:52:55;9.50;99.90
47168;DHT22;32931;47.778;17.806;2023-02-23T02:55:25;9.50;99.90
47168;DHT22;32931;47.778;17.806;2023-02-23T02:57:56;9.50;99.90
47168;DHT22;32931;47.778;17.806;2023-02-23T03:00:40;9.50;99.90
47168;DHT22;32931;47.778;17.806;2023-02-23T03:06:13;9.50;99.90
47168;DHT22;32931;47.778;17.806;2023-02-23T03:12:32;9.50;99.90
47168;DHT22;32931;47.778;17.806;2023-02-23T03:19:04;9.50;99.90
47168;DHT22;32931;47.778;17.806;2023-02-23T03:28:17;9.50;99.90
47168;DHT22;32931;47.778;17.806;2023-02-23T03:40:17;9.50;99.90
47168;DHT22;32931;47.778;17.806;2023-02-23T03:43:05;9.50;99.90
47168;DHT22;32931;47.778;17.806;2023-02-23T03:45:51;9.50;99.90
47168;DHT22;32931;47.778;17.806;2023-02-23T03:48:39;9.50;99.90
47168;DHT22;32931;47.778;17.806;2023-02-23T03:51:28;9.50;99.90
47168;DHT22;32931;47.778;17.806;2023-02-23T03:54:24;9.50;99.90
47168;DHT22;32931;47.778;17.806;2023-02-23T03:57:11;9.50;99.90
47168;DHT22;32931;47.778;17.806;2023-02-23T04:00:00;9.50;99.90
47168;DHT22;32931;47.778;17.806;2023-02-23T04:02:49;9.50;99.90
47168;DHT22;32931;47.778;17.806;2023-02-23T04:05:37;9.50;99.90
47168;DHT22;32931;47.778;17.806;2023-02-23T04:08:29;9.50;99.90
47168;DHT22;32931;47.778;17.806;2023-02-23T04:11:44;9.50;99.90
47168;DHT22;32931;47.778;17.806;2023-02-23T04:14:44;9.50;99.90
47168;DHT22;32931;47.778;17.806;2023-02-23T04:17:14;9.50;99.90
47168;DHT22;32931;47.778;17.806;2023-02-23T04:19:51;9.50;99.90
47168;DHT22;32931;47.778;17.806;2023-02-23T04:22:18;9.50;99.90
47168;DHT22;32931;47.778;17.806;2023-02-23T04:24:44;9.50;99.90
47168;DHT22;32931;47.778;17.806;2023-02-23T04:27:11;9.50;99.90
47168;DHT22;32931;47.778;17.806;2023-02-23T04:29:38;9.50;99.90
47168;DHT22;32931;47.778;17.806;2023-02-23T04:32:06;9.50;99.90
47168;DHT22;32931;47.778;17.806;2023-02-23T04:34:32;9.50;99.90
47168;DHT22;32931;47.778;17.806;2023-02-23T04:36:58;9.50;99.90
47168;DHT22;32931;47.778;17.806;2023-02-23T04:39:25;9.50;99.90
47168;DHT22;32931;47.778;17.806;2023-02-23T04:41:51;9.50;99.90
47168;DHT22;32931;47.778;17.806;2023-02-23T04:44:17;9.50;99.90
47168;DHT22;32931;47.778;17.806;2023-02-23T04:46:43;9.50;99.90
47168;DHT22;32931;47.778;17.806;2023-02-23T04:49:10;9.50;99.90
47168;DHT22;32931;47.778;17.806;2023-02-23T04:51:36;9.50;99.90
47168;DHT22;32931;47.778;17.806;2023-02-23T04:54:03;9.50;99.90
47168;DHT22;32931;47.778;17.806;2023-02-23T04:56:30;9.50;99.90
47168;DHT22;32931;47.778;17.806;2023-02-23T04:58:56;9.50;99.90
47168;DHT22;32931;47.778;17.806;2023-02-23T05:01:22;9.50;99.90
47168;DHT22;32931;47.778;17.806;2023-02-23T05:03:49;9.50;99.90
47168;DHT22;32931;47.778;17.806;2023-02-23T05:06:16;9.50;99.90
47168;DHT22;32931;47.778;17.806;2023-02-23T05:08:43;9.60;99.90
47168;DHT22;32931;47.778;17.806;2023-02-23T05:11:10;9.60;99.90
47168;DHT22;32931;47.778;17.806;2023-02-23T05:13:37;9.60;99.90
47168;DHT22;32931;47.778;17.806;2023-02-23T05:16:03;9.60;99.90
47168;DHT22;32931;47.778;17.806;2023-02-23T05:18:30;9.60;99.90
47168;DHT22;32931;47.778;17.806;2023-02-23T05:21:04;9.60;99.90
47168;DHT22;32931;47.778;17.806;2023-02-23T05:23:33;9.60;99.90
47168;DHT22;32931;47.778;17.806;2023-02-23T05:26:05;9.60;99.90
47168;DHT22;32931;47.778;17.806;2023-02-23T05:28:36;9.70;99.90
47168;DHT22;32931;47.778;17.806;2023-02-23T05:31:03;9.60;99.90
47168;DHT22;32931;47.778;17.806;2023-02-23T05:33:31;9.60;99.90
47168;DHT22;32931;47.778;17.806;2023-02-23T05:35:57;9.70;99.90
47168;DHT22;32931;47.778;17.806;2023-02-23T05:38:25;9.70;99.90
47168;DHT22;32931;47.778;17.806;2023-02-23T05:40:52;9.60;99.90
47168;DHT22;32931;47.778;17.806;2023-02-23T05:43:18;9.60;99.90
47168;DHT22;32931;47.778;17.806;2023-02-23T05:45:44;9.70;99.90
47168;DHT22;32931;47.778;17.806;2023-02-23T05:48:11;9.70;99.90
47168;DHT22;32931;47.778;17.806;2023-02-23T05:50:38;9.70;99.90
47168;DHT22;32931;47.778;17.806;2023-02-23T05:53:04;9.70;99.90
47168;DHT22;32931;47.778;17.806;2023-02-23T05:55:30;9.70;99.90
47168;DHT22;32931;47.778;17.806;2023-02-23T05:57:57;9.70;99.90
47168;DHT22;32931;47.778;17.806;2023-02-23T06:00:23;9.70;99.90
47168;DHT22;32931;47.778;17.806;2023-02-23T06:02:49;9.70;99.90
47168;DHT22;32931;47.778;17.806;2023-02-23T06:05:17;9.70;99.90
47168;DHT22;32931;47.778;17.806;2023-02-23T06:07:43;9.70;99.90
47168;DHT22;32931;47.778;17.806;2023-02-23T06:10:10;9.70;99.90
47168;DHT22;32931;47.778;17.806;2023-02-23T06:12:36;9.70;99.90
47168;DHT22;32931;47.778;17.806;2023-02-23T06:15:03;9.70;99.90
47168;DHT22;32931;47.778;17.806;2023-02-23T06:17:29;9.70;99.90
47168;DHT22;32931;47.778;17.806;2023-02-23T06:19:55;9.70;99.90
47168;DHT22;32931;47.778;17.806;2023-02-23T06:22:23;9.70;99.90
47168;DHT22;32931;47.778;17.806;2023-02-23T06:24:49;9.80;99.90
47168;DHT22;32931;47.778;17.806;2023-02-23T06:27:16;9.80;99.90
47168;DHT22;32931;47.778;17.806;2023-02-23T06:29:42;9.80;99.90
47168;DHT22;32931;47.778;17.806;2023-02-23T06:32:08;9.80;99.90
47168;DHT22;32931;47.778;17.806;2023-02-23T06:34:35;9.80;99.90
47168;DHT22;32931;47.778;17.806;2023-02-23T06:37:02;9.90;99.90
47168;DHT22;32931;47.778;17.806;2023-02-23T06:39:28;9.90;99.90
47168;DHT22;32931;47.778;17.806;2023-02-23T06:41:54;9.90;99.90
47168;DHT22;32931;47.778;17.806;2023-02-23T06:44:20;9.90;99.90
47168;DHT22;32931;47.778;17.806;2023-02-23T06:46:47;9.90;99.90
47168;DHT22;32931;47.778;17.806;2023-02-23T06:49:13;10.00;99.90
47168;DHT22;32931;47.778;17.806;2023-02-23T06:51:39;10.00;99.90
47168;DHT22;32931;47.778;17.806;2023-02-23T06:54:05;10.00;99.90
47168;DHT22;32931;47.778;17.806;2023-02-23T06:56:32;10.10;99.90
47168;DHT22;32931;47.778;17.806;2023-02-23T06:58:58;10.10;99.90
47168;DHT22;32931;47.778;17.806;2023-02-23T07:01:24;10.10;99.90
47168;DHT22;32931;47.778;17.806;2023-02-23T07:03:50;10.20;99.90
47168;DHT22;32931;47.778;17.806;2023-02-23T07:06:16;10.10;99.90
47168;DHT22;32931;47.778;17.806;2023-02-23T07:08:42;10.20;99.90
47168;DHT22;32931;47.778;17.806;2023-02-23T07:11:12;10.20;99.90
47168;DHT22;32931;47.778;17.806;2023-02-23T07:13:39;10.20;99.90
47168;DHT22;32931;47.778;17.806;2023-02-23T07:16:06;10.20;99.90
47168;DHT22;32931;47.778;17.806;2023-02-23T07:18:33;10.30;99.90
47168;DHT22;32931;47.778;17.806;2023-02-23T07:20:59;10.30;99.90
47168;DHT22;32931;47.778;17.806;2023-02-23T07:23:25;10.30;99.90
47168;DHT22;32931;47.778;17.806;2023-02-23T07:25:52;10.30;99.90
47168;DHT22;32931;47.778;17.806;2023-02-23T07:28:21;10.40;99.90
47168;DHT22;32931;47.778;17.806;2023-02-23T07:30:47;10.40;99.90
47168;DHT22;32931;47.778;17.806;2023-02-23T07:33:15;10.50;99.90
47168;DHT22;32931;47.778;17.806;2023-02-23T07:35:41;10.50;99.90
47168;DHT22;32931;47.778;17.806;2023-02-23T07:38:08;10.50;99.90
47168;DHT22;32931;47.778;17.806;2023-02-23T07:40:34;10.50;99.90
47168;DHT22;32931;47.778;17.806;2023-02-23T07:43:00;10.50;99.90
47168;DHT22;32931;47.778;17.806;2023-02-23T07:45:26;10.60;99.90
47168;DHT22;32931;47.778;17.806;2023-02-23T07:47:52;10.60;99.90
47168;DHT22;32931;47.778;17.806;2023-02-23T07:50:18;10.60;99.90
47168;DHT22;32931;47.778;17.806;2023-02-23T07:52:45;10.60;99.90
47168;DHT22;32931;47.778;17.806;2023-02-23T07:55:11;10.60;99.90
47168;DHT22;32931;47.778;17.806;2023-02-23T07:57:37;10.70;99.90
47168;DHT22;32931;47.778;17.806;2023-02-23T08:00:05;10.70;99.90
47168;DHT22;32931;47.778;17.806;2023-02-23T08:02:32;10.70;99.90
47168;DHT22;32931;47.778;17.806;2023-02-23T08:04:58;10.70;99.90
47168;DHT22;32931;47.778;17.806;2023-02-23T08:07:24;10.80;99.90
47168;DHT22;32931;47.778;17.806;2023-02-23T08:09:51;10.80;99.90
47168;DHT22;32931;47.778;17.806;2023-02-23T08:12:18;10.80;99.90
47168;DHT22;32931;47.778;17.806;2023-02-23T08:14:45;10.90;99.90
47168;DHT22;32931;47.778;17.806;2023-02-23T08:17:11;10.90;99.90
47168;DHT22;32931;47.778;17.806;2023-02-23T08:19:37;10.90;99.90
47168;DHT22;32931;47.778;17.806;2023-02-23T08:22:03;10.90;99.90
47168;DHT22;32931;47.778;17.806;2023-02-23T08:24:30;10.90;99.90
47168;DHT22;32931;47.778;17.806;2023-02-23T08:26:57;11.00;99.90
47168;DHT22;32931;47.778;17.806;2023-02-23T08:29:24;11.00;99.90
47168;DHT22;32931;47.778;17.806;2023-02-23T08:31:50;11.00;99.90
47168;DHT22;32931;47.778;17.806;2023-02-23T08:34:19;11.00;99.90
47168;DHT22;32931;47.778;17.806;2023-02-23T08:36:45;11.10;99.90
47168;DHT22;32931;47.778;17.806;2023-02-23T08:39:12;11.10;99.90
47168;DHT22;32931;47.778;17.806;2023-02-23T08:41:39;11.10;99.90
47168;DHT22;32931;47.778;17.806;2023-02-23T08:44:05;11.20;99.90
47168;DHT22;32931;47.778;17.806;2023-02-23T08:46:32;11.30;99.90
47168;DHT22;32931;47.778;17.806;2023-02-23T08:48:58;11.30;99.90
47168;DHT22;32931;47.778;17.806;2023-02-23T08:51:24;11.40;99.90
47168;DHT22;32931;47.778;17.806;2023-02-23T08:53:51;11.40;99.90
47168;DHT22;32931;47.778;17.806;2023-02-23T08:56:17;11.50;99.90
47168;DHT22;32931;47.778;17.806;2023-02-23T08:58:43;11.50;99.90
47168;DHT22;32931;47.778;17.806;2023-02-23T09:01:19;11.50;99.90
47168;DHT22;32931;47.778;17.806;2023-02-23T09:03:46;11.60;99.90
47168;DHT22;32931;47.778;17.806;2023-02-23T09:06:17;11.60;99.90
47168;DHT22;32931;47.778;17.806;2023-02-23T09:08:45;11.60;99.90
47168;DHT22;32931;47.778;17.806;2023-02-23T09:11:11;11.70;99.90
47168;DHT22;32931;47.778;17.806;2023-02-23T09:13:37;11.80;99.90
47168;DHT22;32931;47.778;17.806;2023-02-23T09:16:04;11.80;99.90
47168;DHT22;32931;47.778;17.806;2023-02-23T09:18:32;11.80;99.90
47168;DHT22;32931;47.778;17.806;2023-02-23T09:21:00;11.90;99.90
47168;DHT22;32931;47.778;17.806;2023-02-23T09:23:33;11.90;99.90
47168;DHT22;32931;47.778;17.806;2023-02-23T09:26:04;12.00;99.90
47168;DHT22;32931;47.778;17.806;2023-02-23T09:28:32;12.00;99.90
47168;DHT22;32931;47.778;17.806;2023-02-23T09:31:08;12.00;99.90
47168;DHT22;32931;47.778;17.806;2023-02-23T09:33:35;12.10;99.90
47168;DHT22;32931;47.778;17.806;2023-02-23T09:36:22;12.10;99.90
47168;DHT22;32931;47.778;17.806;2023-02-23T09:38:50;12.10;99.90
47168;DHT22;32931;47.778;17.806;2023-02-23T09:49:34;12.10;99.90
47168;DHT22;32931;47.778;17.806;2023-02-23T09:52:03;12.00;99.90
47168;DHT22;32931;47.778;17.806;2023-02-23T09:54:33;12.00;99.90
47168;DHT22;32931;47.778;17.806;2023-02-23T09:57:09;12.00;99.90
47168;DHT22;32931;47.778;17.806;2023-02-23T09:59:38;12.00;99.90
47168;DHT22;32931;47.778;17.806;2023-02-23T10:02:25;12.00;99.90
47168;DHT22;32931;47.778;17.806;2023-02-23T10:05:01;12.00;99.90
47168;DHT22;32931;47.778;17.806;2023-02-23T10:18:25;11.90;99.90
47168;DHT22;32931;47.778;17.806;2023-02-23T10:21:04;11.90;99.90
47168;DHT22;32931;47.778;17.806;2023-02-23T10:23:42;11.90;99.90
47168;DHT22;32931;47.778;17.806;2023-02-23T10:26:19;11.90;99.90
47168;DHT22;32931;47.778;17.806;2023-02-23T10:28:46;12.00;99.90
47168;DHT22;32931;47.778;17.806;2023-02-23T10:31:26;11.90;99.90
47168;DHT22;32931;47.778;17.806;2023-02-23T10:33:56;12.00;99.90
47168;DHT22;32931;47.778;17.806;2023-02-23T10:36:35;12.00;99.90
47168;DHT22;32931;47.778;17.806;2023-02-23T10:39:05;12.00;99.90
47168;DHT22;32931;47.778;17.806;2023-02-23T10:41:33;11.90;99.90
47168;DHT22;32931;47.778;17.806;2023-02-23T10:44:00;11.90;99.90
47168;DHT22;32931;47.778;17.806;2023-02-23T10:46:33;12.00;99.90
47168;DHT22;32931;47.778;17.806;2023-02-23T10:49:00;12.00;99.90
47168;DHT22;32931;47.778;17.806;2023-02-23T10:51:31;12.00;99.90
47168;DHT22;32931;47.778;17.806;2023-02-23T10:53:58;12.00;99.90
47168;DHT22;32931;47.778;17.806;2023-02-23T10:56:24;12.00;99.90
47168;DHT22;32931;47.778;17.806;2023-02-23T10:58:55;12.00;99.90
47168;DHT22;32931;47.778;17.806;2023-02-23T11:01:39;12.10;99.90
47168;DHT22;32931;47.778;17.806;2023-02-23T11:04:24;12.10;99.90
47168;DHT22;32931;47.778;17.806;2023-02-23T11:07:22;12.10;99.90
47168;DHT22;32931;47.778;17.806;2023-02-23T11:09:49;12.10;99.90
47168;DHT22;32931;47.778;17.806;2023-02-23T11:12:23;12.10;99.90
47168;DHT22;32931;47.778;17.806;2023-02-23T11:14:52;12.10;99.90
47168;DHT22;32931;47.778;17.806;2023-02-23T11:17:34;12.20;99.90
47168;DHT22;32931;47.778;17.806;2023-02-23T11:22:42;12.30;99.90
47168;DHT22;32931;47.778;17.806;2023-02-23T11:25:22;12.30;99.90
47168;DHT22;32931;47.778;17.806;2023-02-23T11:27:50;12.40;99.90
47168;DHT22;32931;47.778;17.806;2023-02-23T11:30:20;12.40;99.90
47168;DHT22;32931;47.778;17.806;2023-02-23T11:32:55;12.50;99.90
47168;DHT22;32931;47.778;17.806;2023-02-23T11:37:48;12.70;99.90
47168;DHT22;32931;47.778;17.806;2023-02-23T11:43:05;12.90;99.90
47168;DHT22;32931;47.778;17.806;2023-02-23T11:45:46;12.90;99.90
47168;DHT22;32931;47.778;17.806;2023-02-23T11:50:55;13.10;99.90
47168;DHT22;32931;47.778;17.806;2023-02-23T11:53:39;13.10;99.90
47168;DHT22;32931;47.778;17.806;2023-02-23T11:56:09;13.20;99.90
47168;DHT22;32931;47.778;17.806;2023-02-23T12:01:10;13.50;99.90
47168;DHT22;32931;47.778;17.806;2023-02-23T12:03:52;13.60;99.90
47168;DHT22;32931;47.778;17.806;2023-02-23T12:06:40;13.60;99.90
47168;DHT22;32931;47.778;17.806;2023-02-23T12:09:28;13.70;99.90
47168;DHT22;32931;47.778;17.806;2023-02-23T12:12:16;13.80;99.90
47168;DHT22;32931;47.778;17.806;2023-02-23T12:15:09;13.90;99.90
47168;DHT22;32931;47.778;17.806;2023-02-23T12:17:47;14.00;99.90
47168;DHT22;32931;47.778;17.806;2023-02-23T12:20:15;14.10;99.90
47168;DHT22;32931;47.778;17.806;2023-02-23T12:22:57;14.10;99.90
47168;DHT22;32931;47.778;17.806;2023-02-23T12:25:49;14.20;99.90
47168;DHT22;32931;47.778;17.806;2023-02-23T12:28:32;14.30;99.90
47168;DHT22;32931;47.778;17.806;2023-02-23T12:34:25;14.40;98.50
47168;DHT22;32931;47.778;17.806;2023-02-23T12:36:46;14.40;99.90
47168;DHT22;32931;47.778;17.806;2023-02-23T12:39:30;14.50;99.90
47168;DHT22;32931;47.778;17.806;2023-02-23T12:42:12;14.70;99.90
47168;DHT22;32931;47.778;17.806;2023-02-23T12:44:45;14.70;99.90
47168;DHT22;32931;47.778;17.806;2023-02-23T12:47:32;14.70;99.90
47168;DHT22;32931;47.778;17.806;2023-02-23T12:50:01;14.70;98.70
47168;DHT22;32931;47.778;17.806;2023-02-23T12:52:36;14.70;99.90
47168;DHT22;32931;47.778;17.806;2023-02-23T12:55:10;14.80;99.30
47168;DHT22;32931;47.778;17.806;2023-02-23T12:57:45;14.80;99.60
47168;DHT22;32931;47.778;17.806;2023-02-23T13:21:33;15.00;99.10
47168;DHT22;32931;47.778;17.806;2023-02-23T13:26:51;15.20;99.30
47168;DHT22;32931;47.778;17.806;2023-02-23T13:29:55;15.30;98.70
47168;DHT22;32931;47.778;17.806;2023-02-23T13:32:20;15.40;99.00
47168;DHT22;32931;47.778;17.806;2023-02-23T13:35:12;15.60;98.40
47168;DHT22;32931;47.778;17.806;2023-02-23T13:43:13;15.70;96.50
47168;DHT22;32931;47.778;17.806;2023-02-23T13:46:04;15.70;98.00
47168;DHT22;32931;47.778;17.806;2023-02-23T13:51:40;15.80;96.90
47168;DHT22;32931;47.778;17.806;2023-02-23T13:56:47;15.70;98.10
47168;DHT22;32931;47.778;17.806;2023-02-23T13:59:20;15.80;98.30
47168;DHT22;32931;47.778;17.806;2023-02-23T14:01:49;15.80;97.50
47168;DHT22;32931;47.778;17.806;2023-02-23T14:04:22;15.70;97.50
47168;DHT22;32931;47.778;17.806;2023-02-23T14:07:02;15.70;97.20
47168;DHT22;32931;47.778;17.806;2023-02-23T14:09:35;15.70;97.50
47168;DHT22;32931;47.778;17.806;2023-02-23T14:12:10;15.70;96.80
47168;DHT22;32931;47.778;17.806;2023-02-23T14:14:43;15.70;97.40
47168;DHT22;32931;47.778;17.806;2023-02-23T14:22:36;15.50;96.50
47168;DHT22;32931;47.778;17.806;2023-02-23T14:28:01;15.30;96.20
47168;DHT22;32931;47.778;17.806;2023-02-23T14:30:28;15.20;97.30
47168;DHT22;32931;47.778;17.806;2023-02-23T14:33:00;15.20;97.40
47168;DHT22;32931;47.778;17.806;2023-02-23T14:38:02;15.00;97.00
47168;DHT22;32931;47.778;17.806;2023-02-23T14:40:36;14.90;97.50
47168;DHT22;32931;47.778;17.806;2023-02-23T14:46:06;14.80;96.80
47168;DHT22;32931;47.778;17.806;2023-02-23T14:48:33;14.70;97.80
47168;DHT22;32931;47.778;17.806;2023-02-23T14:51:22;14.70;97.80
47168;DHT22;32931;47.778;17.806;2023-02-23T14:53:49;14.70;97.30
47168;DHT22;32931;47.778;17.806;2023-02-23T14:56:24;14.60;97.80
47168;DHT22;32931;47.778;17.806;2023-02-23T14:58:52;14.60;97.90
47168;DHT22;32931;47.778;17.806;2023-02-23T15:04:12;14.60;97.20
47168;DHT22;32931;47.778;17.806;2023-02-23T15:06:39;14.60;97.30
47168;DHT22;32931;47.778;17.806;2023-02-23T15:09:39;14.50;97.80
47168;DHT22;32931;47.778;17.806;2023-02-23T15:12:20;14.40;97.70
47168;DHT22;32931;47.778;17.806;2023-02-23T15:14:48;14.30;97.60
47168;DHT22;32931;47.778;17.806;2023-02-23T15:17:20;14.20;98.20
47168;DHT22;32931;47.778;17.806;2023-02-23T15:19:52;14.20;98.10
47168;DHT22;32931;47.778;17.806;2023-02-23T15:22:37;14.10;98.40
47168;DHT22;32931;47.778;17.806;2023-02-23T15:25:21;14.10;98.20
47168;DHT22;32931;47.778;17.806;2023-02-23T15:27:49;14.00;98.30
47168;DHT22;32931;47.778;17.806;2023-02-23T15:30:24;14.00;98.70
47168;DHT22;32931;47.778;17.806;2023-02-23T15:33:19;13.90;98.40
47168;DHT22;32931;47.778;17.806;2023-02-23T15:38:38;13.70;98.60
47168;DHT22;32931;47.778;17.806;2023-02-23T15:41:12;13.60;99.00
47168;DHT22;32931;47.778;17.806;2023-02-23T15:43:41;13.50;98.90
47168;DHT22;32931;47.778;17.806;2023-02-23T15:46:08;13.40;99.10
47168;DHT22;32931;47.778;17.806;2023-02-23T15:48:43;13.40;99.30
47168;DHT22;32931;47.778;17.806;2023-02-23T15:51:36;13.30;99.10
47168;DHT22;32931;47.778;17.806;2023-02-23T15:54:29;13.20;99.30
47168;DHT22;32931;47.778;17.806;2023-02-23T15:57:01;13.10;99.30
47168;DHT22;32931;47.778;17.806;2023-02-23T15:59:34;13.10;99.80
47168;DHT22;32931;47.778;17.806;2023-02-23T16:02:02;13.00;99.90
47168;DHT22;32931;47.778;17.806;2023-02-23T16:04:32;12.90;99.90
47168;DHT22;32931;47.778;17.806;2023-02-23T16:09:37;12.80;99.90
47168;DHT22;32931;47.778;17.806;2023-02-23T16:12:10;12.70;99.90
47168;DHT22;32931;47.778;17.806;2023-02-23T16:14:49;12.70;99.90
47168;DHT22;32931;47.778;17.806;2023-02-23T16:17:46;12.60;99.90
47168;DHT22;32931;47.778;17.806;2023-02-23T16:21:00;12.50;99.90
47168;DHT22;32931;47.778;17.806;2023-02-23T16:23:12;12.50;99.90
47168;DHT22;32931;47.778;17.806;2023-02-23T16:25:41;12.50;99.90
47168;DHT22;32931;47.778;17.806;2023-02-23T16:28:13;12.40;99.90
47168;DHT22;32931;47.778;17.806;2023-02-23T16:30:43;12.40;99.90
47168;DHT22;32931;47.778;17.806;2023-02-23T16:33:23;12.40;99.90
47168;DHT22;32931;47.778;17.806;2023-02-23T16:35:51;12.40;99.90
47168;DHT22;32931;47.778;17.806;2023-02-23T16:40:47;12.30;99.90
47168;DHT22;32931;47.778;17.806;2023-02-23T16:43:14;12.30;99.90
47168;DHT22;32931;47.778;17.806;2023-02-23T16:45:41;12.30;99.90
47168;DHT22;32931;47.778;17.806;2023-02-23T16:48:15;12.20;99.90
47168;DHT22;32931;47.778;17.806;2023-02-23T16:50:42;12.20;99.90
47168;DHT22;32931;47.778;17.806;2023-02-23T16:53:11;12.20;99.90
47168;DHT22;32931;47.778;17.806;2023-02-23T16:55:41;12.10;99.90
47168;DHT22;32931;47.778;17.806;2023-02-23T16:58:16;12.10;99.90
47168;DHT22;32931;47.778;17.806;2023-02-23T17:00:43;12.10;99.90
47168;DHT22;32931;47.778;17.806;2023-02-23T17:03:20;12.00;99.90
47168;DHT22;32931;47.778;17.806;2023-02-23T17:05:47;12.00;99.90
47168;DHT22;32931;47.778;17.806;2023-02-23T17:08:14;12.00;99.90
47168;DHT22;32931;47.778;17.806;2023-02-23T17:10:41;12.00;99.90
47168;DHT22;32931;47.778;17.806;2023-02-23T17:13:19;12.00;99.90
47168;DHT22;32931;47.778;17.806;2023-02-23T17:15:47;11.90;99.90
47168;DHT22;32931;47.778;17.806;2023-02-23T17:18:21;11.90;99.90
47168;DHT22;32931;47.778;17.806;2023-02-23T17:20:49;11.90;99.90
47168;DHT22;32931;47.778;17.806;2023-02-23T17:23:17;11.90;99.90
47168;DHT22;32931;47.778;17.806;2023-02-23T17:25:43;11.90;99.90
47168;DHT22;32931;47.778;17.806;2023-02-23T17:28:09;11.80;99.90
47168;DHT22;32931;47.778;17.806;2023-02-23T17:30:36;11.90;99.90
47168;DHT22;32931;47.778;17.806;2023-02-23T17:33:05;11.90;99.90
47168;DHT22;32931;47.778;17.806;2023-02-23T17:35:31;11.90;99.90
47168;DHT22;32931;47.778;17.806;2023-02-23T17:37:59;11.80;99.90
47168;DHT22;32931;47.778;17.806;2023-02-23T17:40:26;11.80;99.90
47168;DHT22;32931;47.778;17.806;2023-02-23T17:42:58;11.80;99.90
47168;DHT22;32931;47.778;17.806;2023-02-23T17:45:26;11.80;99.90
47168;DHT22;32931;47.778;17.806;2023-02-23T17:47:52;11.80;99.90
47168;DHT22;32931;47.778;17.806;2023-02-23T17:50:19;11.80;99.90
47168;DHT22;32931;47.778;17.806;2023-02-23T17:52:48;11.80;99.90
47168;DHT22;32931;47.778;17.806;2023-02-23T17:55:15;11.80;99.90
47168;DHT22;32931;47.778;17.806;2023-02-23T17:57:41;11.80;99.90
47168;DHT22;32931;47.778;17.806;2023-02-23T18:00:10;11.80;99.90
47168;DHT22;32931;47.778;17.806;2023-02-23T18:02:41;11.80;99.90
47168;DHT22;32931;47.778;17.806;2023-02-23T18:05:09;11.80;99.90
47168;DHT22;32931;47.778;17.806;2023-02-23T18:07:36;11.70;99.90
47168;DHT22;32931;47.778;17.806;2023-02-23T18:10:03;11.80;99.90